HES150 LIMJ-LICJ
Flight info
| Callsign | HES150 |
|---|---|
| Flight time | 1h 48m |
| Altitude | 21000 |
| Route | UNITA DCT KONER DCT ELB DCT PODOX DCT TINTO DCT GIANO |
| Aircraft | AT72/M-SDE3/C |
Departure
| Time | 2026-04-24 20:34 |
|---|---|
| Airport | Genoa Cristoforo Colombo Airport (LIMJ) |
Arrival
| Time | 2026-04-24 22:23 |
|---|---|
| Airport | Falcone–Borsellino Airport (LICJ) |
| Time | Latitude | Longitude | Altitude | Speed | Heading |
|---|---|---|---|---|---|
| 2026-04-24 20:13 | 44.41506 | 8.84555 | 16 ft | 0 kts | 323° |
| 2026-04-24 20:22 | 44.41494 | 8.84568 | 16 ft | 2 kts | 322° |
| 2026-04-24 20:22 | 44.41481 | 8.84582 | 16 ft | 2 kts | 322° |
| 2026-04-24 20:22 | 44.41469 | 8.84596 | 21 ft | 2 kts | 322° |
| 2026-04-24 20:22 | 44.41456 | 8.84609 | 20 ft | 2 kts | 322° |
| 2026-04-24 20:23 | 44.41444 | 8.84623 | 16 ft | 2 kts | 336° |
| 2026-04-24 20:23 | 44.41432 | 8.84629 | 19 ft | 0 kts | 321° |
| 2026-04-24 20:27 | 44.41434 | 8.84624 | 18 ft | 1 kts | 292° |
| 2026-04-24 20:27 | 44.41428 | 8.84607 | 19 ft | 5 kts | 234° |
| 2026-04-24 20:27 | 44.41396 | 8.84552 | 16 ft | 9 kts | 231° |
| 2026-04-24 20:28 | 44.41350 | 8.84473 | 16 ft | 11 kts | 231° |
| 2026-04-24 20:28 | 44.41313 | 8.84372 | 16 ft | 13 kts | 269° |
| 2026-04-24 20:28 | 44.41338 | 8.84246 | 16 ft | 14 kts | 287° |
| 2026-04-24 20:28 | 44.41367 | 8.84108 | 16 ft | 15 kts | 286° |
| 2026-04-24 20:29 | 44.41387 | 8.84013 | 18 ft | 15 kts | 286° |
| 2026-04-24 20:29 | 44.41421 | 8.83820 | 16 ft | 15 kts | 285° |
| 2026-04-24 20:29 | 44.41448 | 8.83676 | 18 ft | 15 kts | 285° |
| 2026-04-24 20:29 | 44.41475 | 8.83532 | 17 ft | 15 kts | 284° |
| 2026-04-24 20:30 | 44.41502 | 8.83386 | 19 ft | 16 kts | 284° |
| 2026-04-24 20:30 | 44.41529 | 8.83241 | 18 ft | 15 kts | 287° |
| 2026-04-24 20:30 | 44.41561 | 8.83097 | 19 ft | 15 kts | 286° |
| 2026-04-24 20:30 | 44.41591 | 8.82953 | 18 ft | 16 kts | 286° |
| 2026-04-24 20:31 | 44.41615 | 8.82837 | 16 ft | 6 kts | 285° |
| 2026-04-24 20:31 | 44.41622 | 8.82799 | 16 ft | 0 kts | 284° |
| 2026-04-24 20:32 | 44.41628 | 8.82766 | 16 ft | 8 kts | 284° |
| 2026-04-24 20:32 | 44.41647 | 8.82660 | 18 ft | 14 kts | 284° |
| 2026-04-24 20:32 | 44.41658 | 8.82550 | 18 ft | 7 kts | 248° |
| 2026-04-24 20:32 | 44.41599 | 8.82483 | 14 ft | 15 kts | 201° |
| 2026-04-24 20:33 | 44.41528 | 8.82500 | 14 ft | 7 kts | 115° |
| 2026-04-24 20:33 | 44.41526 | 8.82508 | 14 ft | 0 kts | 111° |
| 2026-04-24 20:33 | 44.41489 | 8.82716 | 16 ft | 54 kts | 97° |
| 2026-04-24 20:34 | 44.41346 | 8.83502 | 21 ft | 108 kts | 104° |
| 2026-04-24 20:34 | 44.41129 | 8.84511 | 408 ft | 112 kts | 110° |
| 2026-04-24 20:34 | 44.40699 | 8.85546 | 653 ft | 138 kts | 131° |
| 2026-04-24 20:34 | 44.39950 | 8.86452 | 999 ft | 145 kts | 133° |
| 2026-04-24 20:35 | 44.39148 | 8.87317 | 1367 ft | 154 kts | 162° |
| 2026-04-24 20:35 | 44.38055 | 8.87771 | 1764 ft | 174 kts | 161° |
| 2026-04-24 20:35 | 44.36868 | 8.88375 | 2154 ft | 186 kts | 159° |
| 2026-04-24 20:35 | 44.35660 | 8.89078 | 2532 ft | 194 kts | 157° |
| 2026-04-24 20:36 | 44.34407 | 8.89872 | 2915 ft | 200 kts | 157° |
| 2026-04-24 20:36 | 44.33127 | 8.90701 | 3310 ft | 205 kts | 157° |
| 2026-04-24 20:36 | 44.31813 | 8.91547 | 3681 ft | 210 kts | 157° |
| 2026-04-24 20:36 | 44.30473 | 8.92415 | 4049 ft | 214 kts | 157° |
| 2026-04-24 20:37 | 44.29106 | 8.93302 | 4422 ft | 218 kts | 157° |
| 2026-04-24 20:37 | 44.27676 | 8.93889 | 4775 ft | 216 kts | 184° |
| 2026-04-24 20:37 | 44.26312 | 8.93147 | 5051 ft | 219 kts | 222° |
| 2026-04-24 20:37 | 44.25280 | 8.91583 | 5319 ft | 221 kts | 228° |
| 2026-04-24 20:38 | 44.24194 | 8.90006 | 5593 ft | 227 kts | 224° |
| 2026-04-24 20:38 | 44.22991 | 8.88545 | 5866 ft | 231 kts | 219° |
| 2026-04-24 20:38 | 44.21677 | 8.87198 | 6139 ft | 235 kts | 215° |
| 2026-04-24 20:38 | 44.20308 | 8.85953 | 6415 ft | 239 kts | 212° |
| 2026-04-24 20:39 | 44.18876 | 8.84740 | 6692 ft | 241 kts | 211° |
| 2026-04-24 20:39 | 44.17438 | 8.83546 | 6951 ft | 244 kts | 211° |
| 2026-04-24 20:39 | 44.15969 | 8.82341 | 7207 ft | 245 kts | 211° |
| 2026-04-24 20:39 | 44.14384 | 8.81555 | 7472 ft | 243 kts | 182° |
| 2026-04-24 20:40 | 44.12735 | 8.82011 | 7743 ft | 242 kts | 159° |
| 2026-04-24 20:40 | 44.11230 | 8.83009 | 8013 ft | 243 kts | 148° |
| 2026-04-24 20:40 | 44.09845 | 8.84380 | 8285 ft | 244 kts | 139° |
| 2026-04-24 20:40 | 44.08553 | 8.85918 | 8553 ft | 244 kts | 137° |
| 2026-04-24 20:41 | 44.07278 | 8.87495 | 8831 ft | 245 kts | 136° |
| 2026-04-24 20:41 | 44.05998 | 8.89075 | 9116 ft | 246 kts | 137° |
| 2026-04-24 20:41 | 44.04712 | 8.90614 | 9399 ft | 247 kts | 138° |
| 2026-04-24 20:41 | 44.03399 | 8.92161 | 9686 ft | 247 kts | 138° |
| 2026-04-24 20:42 | 44.02074 | 8.93693 | 9973 ft | 248 kts | 138° |
| 2026-04-24 20:42 | 44.00749 | 8.95232 | 10241 ft | 248 kts | 138° |
| 2026-04-24 20:42 | 43.99425 | 8.96773 | 10499 ft | 248 kts | 138° |
| 2026-04-24 20:42 | 43.98098 | 8.98315 | 10765 ft | 248 kts | 138° |
| 2026-04-24 20:43 | 43.96791 | 8.99830 | 11029 ft | 248 kts | 138° |
| 2026-04-24 20:43 | 43.95460 | 9.01374 | 11296 ft | 249 kts | 138° |
| 2026-04-24 20:43 | 43.94135 | 9.02917 | 11568 ft | 249 kts | 138° |
| 2026-04-24 20:43 | 43.92800 | 9.04455 | 11837 ft | 249 kts | 138° |
| 2026-04-24 20:44 | 43.91469 | 9.05995 | 12113 ft | 249 kts | 138° |
| 2026-04-24 20:44 | 43.90157 | 9.07517 | 12391 ft | 249 kts | 138° |
| 2026-04-24 20:44 | 43.88825 | 9.09061 | 12671 ft | 248 kts | 138° |
| 2026-04-24 20:44 | 43.87497 | 9.10595 | 12950 ft | 248 kts | 138° |
| 2026-04-24 20:45 | 43.86181 | 9.12115 | 13234 ft | 248 kts | 138° |
| 2026-04-24 20:45 | 43.84849 | 9.13653 | 13526 ft | 248 kts | 138° |
| 2026-04-24 20:45 | 43.83524 | 9.15184 | 13814 ft | 248 kts | 137° |
| 2026-04-24 20:45 | 43.82199 | 9.16716 | 14088 ft | 248 kts | 137° |
| 2026-04-24 20:46 | 43.80879 | 9.18240 | 14344 ft | 247 kts | 137° |
| 2026-04-24 20:46 | 43.79559 | 9.19759 | 14609 ft | 246 kts | 138° |
| 2026-04-24 20:46 | 43.78248 | 9.21267 | 14866 ft | 245 kts | 137° |
| 2026-04-24 20:46 | 43.76938 | 9.22773 | 15132 ft | 244 kts | 137° |
| 2026-04-24 20:47 | 43.75627 | 9.24281 | 15399 ft | 244 kts | 137° |
| 2026-04-24 20:47 | 43.74338 | 9.25766 | 15665 ft | 244 kts | 137° |
| 2026-04-24 20:47 | 43.73035 | 9.27264 | 15937 ft | 243 kts | 137° |
| 2026-04-24 20:47 | 43.71731 | 9.28760 | 16212 ft | 242 kts | 138° |
| 2026-04-24 20:48 | 43.70451 | 9.30229 | 16488 ft | 241 kts | 138° |
| 2026-04-24 20:48 | 43.69164 | 9.31704 | 16769 ft | 239 kts | 137° |
| 2026-04-24 20:48 | 43.67884 | 9.33170 | 17051 ft | 238 kts | 138° |
| 2026-04-24 20:48 | 43.66607 | 9.34632 | 17300 ft | 238 kts | 138° |
| 2026-04-24 20:49 | 43.65325 | 9.36099 | 17564 ft | 239 kts | 138° |
| 2026-04-24 20:49 | 43.64042 | 9.37569 | 17826 ft | 239 kts | 138° |
| 2026-04-24 20:49 | 43.62781 | 9.39014 | 18090 ft | 239 kts | 138° |
| 2026-04-24 20:49 | 43.61504 | 9.40474 | 18353 ft | 238 kts | 138° |
| 2026-04-24 20:50 | 43.60224 | 9.41937 | 18598 ft | 237 kts | 138° |
| 2026-04-24 20:50 | 43.58956 | 9.43384 | 18830 ft | 236 kts | 138° |
| 2026-04-24 20:50 | 43.57693 | 9.44821 | 19068 ft | 235 kts | 137° |
| 2026-04-24 20:50 | 43.56433 | 9.46256 | 19305 ft | 234 kts | 137° |
| 2026-04-24 20:51 | 43.55182 | 9.47685 | 19540 ft | 233 kts | 137° |
| 2026-04-24 20:51 | 43.53936 | 9.49104 | 19787 ft | 232 kts | 137° |
| 2026-04-24 20:51 | 43.52690 | 9.50523 | 20022 ft | 232 kts | 137° |
| 2026-04-24 20:51 | 43.51444 | 9.51943 | 20271 ft | 231 kts | 137° |
| 2026-04-24 20:52 | 43.50219 | 9.53344 | 20519 ft | 230 kts | 137° |
| 2026-04-24 20:52 | 43.48982 | 9.54741 | 20763 ft | 229 kts | 138° |
| 2026-04-24 20:52 | 43.47746 | 9.56139 | 20973 ft | 230 kts | 137° |
| 2026-04-24 20:52 | 43.46496 | 9.57562 | 21059 ft | 236 kts | 137° |
| 2026-04-24 20:53 | 43.45213 | 9.59020 | 21103 ft | 242 kts | 137° |
| 2026-04-24 20:53 | 43.43897 | 9.60512 | 21119 ft | 248 kts | 137° |
| 2026-04-24 20:53 | 43.42569 | 9.62019 | 21126 ft | 253 kts | 137° |
| 2026-04-24 20:53 | 43.41198 | 9.63573 | 21130 ft | 258 kts | 137° |
| 2026-04-24 20:54 | 43.39799 | 9.65157 | 21131 ft | 261 kts | 137° |
| 2026-04-24 20:54 | 43.38379 | 9.66764 | 21133 ft | 264 kts | 137° |
| 2026-04-24 20:54 | 43.36953 | 9.68376 | 21132 ft | 266 kts | 138° |
| 2026-04-24 20:54 | 43.35532 | 9.69983 | 21131 ft | 268 kts | 138° |
| 2026-04-24 20:55 | 43.34089 | 9.71614 | 21132 ft | 270 kts | 138° |
| 2026-04-24 20:55 | 43.32683 | 9.73202 | 21135 ft | 271 kts | 138° |
| 2026-04-24 20:55 | 43.31224 | 9.74848 | 21133 ft | 272 kts | 138° |
| 2026-04-24 20:55 | 43.29756 | 9.76504 | 21135 ft | 273 kts | 138° |
| 2026-04-24 20:56 | 43.28283 | 9.78164 | 21136 ft | 273 kts | 138° |
| 2026-04-24 20:56 | 43.26829 | 9.79802 | 21133 ft | 274 kts | 138° |
| 2026-04-24 20:56 | 43.25350 | 9.81468 | 21135 ft | 274 kts | 138° |
| 2026-04-24 20:56 | 43.23870 | 9.83131 | 21135 ft | 275 kts | 138° |
| 2026-04-24 20:57 | 43.22385 | 9.84801 | 21134 ft | 275 kts | 137° |
| 2026-04-24 20:57 | 43.20921 | 9.86445 | 21135 ft | 275 kts | 138° |
| 2026-04-24 20:57 | 43.19436 | 9.88111 | 21137 ft | 275 kts | 138° |
| 2026-04-24 20:57 | 43.17949 | 9.89778 | 21135 ft | 276 kts | 138° |
| 2026-04-24 20:58 | 43.16461 | 9.91447 | 21135 ft | 276 kts | 138° |
| 2026-04-24 20:58 | 43.14996 | 9.93089 | 21138 ft | 276 kts | 138° |
| 2026-04-24 20:58 | 43.13514 | 9.94749 | 21140 ft | 276 kts | 138° |
| 2026-04-24 20:58 | 43.12022 | 9.96419 | 21139 ft | 276 kts | 138° |
| 2026-04-24 20:59 | 43.10531 | 9.98085 | 21139 ft | 276 kts | 138° |
| 2026-04-24 20:59 | 43.09053 | 9.99736 | 21137 ft | 276 kts | 138° |
| 2026-04-24 20:59 | 43.07556 | 10.01407 | 21135 ft | 276 kts | 138° |
| 2026-04-24 20:59 | 43.06069 | 10.03068 | 21135 ft | 276 kts | 138° |
| 2026-04-24 21:00 | 43.04576 | 10.04734 | 21135 ft | 276 kts | 138° |
| 2026-04-24 21:00 | 43.03104 | 10.06372 | 21132 ft | 276 kts | 137° |
| 2026-04-24 21:00 | 43.01610 | 10.08039 | 21130 ft | 276 kts | 137° |
| 2026-04-24 21:00 | 43.00119 | 10.09696 | 21133 ft | 276 kts | 137° |
| 2026-04-24 21:01 | 42.98625 | 10.11360 | 21134 ft | 276 kts | 138° |
| 2026-04-24 21:01 | 42.97136 | 10.13015 | 21131 ft | 276 kts | 138° |
| 2026-04-24 21:01 | 42.95645 | 10.14670 | 21134 ft | 276 kts | 137° |
| 2026-04-24 21:01 | 42.94152 | 10.16329 | 21134 ft | 276 kts | 137° |
| 2026-04-24 21:02 | 42.92679 | 10.17961 | 21135 ft | 276 kts | 137° |
| 2026-04-24 21:02 | 42.91189 | 10.19615 | 21140 ft | 276 kts | 137° |
| 2026-04-24 21:02 | 42.89691 | 10.21275 | 21135 ft | 276 kts | 137° |
| 2026-04-24 21:02 | 42.88192 | 10.22933 | 21132 ft | 276 kts | 138° |
| 2026-04-24 21:03 | 42.87204 | 10.24027 | 21133 ft | 276 kts | 138° |
| 2026-04-24 21:03 | 42.85713 | 10.25677 | 21134 ft | 276 kts | 138° |
| 2026-04-24 21:03 | 42.84214 | 10.27334 | 21134 ft | 276 kts | 138° |
| 2026-04-24 21:03 | 42.82231 | 10.29524 | 21133 ft | 276 kts | 138° |
| 2026-04-24 21:04 | 42.81220 | 10.30641 | 21143 ft | 277 kts | 138° |
| 2026-04-24 21:04 | 42.79723 | 10.32292 | 21136 ft | 277 kts | 138° |
| 2026-04-24 21:04 | 42.78238 | 10.33929 | 21136 ft | 278 kts | 138° |
| 2026-04-24 21:04 | 42.76734 | 10.35586 | 21135 ft | 278 kts | 138° |
| 2026-04-24 21:05 | 42.75226 | 10.37249 | 21135 ft | 278 kts | 138° |
| 2026-04-24 21:05 | 42.73715 | 10.38914 | 21130 ft | 278 kts | 138° |
| 2026-04-24 21:05 | 42.72080 | 10.40236 | 21128 ft | 279 kts | 157° |
| 2026-04-24 21:05 | 42.70199 | 10.40956 | 21129 ft | 281 kts | 163° |
| 2026-04-24 21:06 | 42.68296 | 10.41582 | 21126 ft | 281 kts | 163° |
| 2026-04-24 21:06 | 42.66420 | 10.42228 | 21128 ft | 281 kts | 161° |
| 2026-04-24 21:06 | 42.64536 | 10.42961 | 21130 ft | 281 kts | 160° |
| 2026-04-24 21:06 | 42.62652 | 10.43725 | 21129 ft | 281 kts | 160° |
| 2026-04-24 21:07 | 42.60779 | 10.44485 | 21130 ft | 281 kts | 160° |
| 2026-04-24 21:07 | 42.58903 | 10.45259 | 21129 ft | 281 kts | 160° |
| 2026-04-24 21:07 | 42.57021 | 10.46035 | 21129 ft | 282 kts | 159° |
| 2026-04-24 21:07 | 42.55163 | 10.46799 | 21129 ft | 282 kts | 160° |
| 2026-04-24 21:08 | 42.53279 | 10.47557 | 21131 ft | 282 kts | 160° |
| 2026-04-24 21:08 | 42.51399 | 10.48310 | 21131 ft | 282 kts | 160° |
| 2026-04-24 21:08 | 42.49516 | 10.49063 | 21130 ft | 282 kts | 160° |
| 2026-04-24 21:08 | 42.47628 | 10.49817 | 21131 ft | 282 kts | 160° |
| 2026-04-24 21:09 | 42.45769 | 10.50559 | 21132 ft | 282 kts | 160° |
| 2026-04-24 21:09 | 42.43876 | 10.51313 | 21129 ft | 282 kts | 160° |
| 2026-04-24 21:09 | 42.41991 | 10.52065 | 21131 ft | 282 kts | 160° |
| 2026-04-24 21:09 | 42.40131 | 10.52806 | 21131 ft | 282 kts | 160° |
| 2026-04-24 21:10 | 42.38225 | 10.53565 | 21132 ft | 282 kts | 160° |
| 2026-04-24 21:10 | 42.36359 | 10.54307 | 21132 ft | 282 kts | 160° |
| 2026-04-24 21:10 | 42.34475 | 10.55056 | 21129 ft | 282 kts | 160° |
| 2026-04-24 21:10 | 42.32584 | 10.55808 | 21131 ft | 282 kts | 160° |
| 2026-04-24 21:11 | 42.30720 | 10.56547 | 21131 ft | 282 kts | 160° |
| 2026-04-24 21:11 | 42.28830 | 10.57300 | 21131 ft | 282 kts | 160° |
| 2026-04-24 21:11 | 42.26954 | 10.58080 | 21126 ft | 281 kts | 157° |
| 2026-04-24 21:11 | 42.25139 | 10.59059 | 21131 ft | 280 kts | 153° |
| 2026-04-24 21:12 | 42.23383 | 10.60134 | 21130 ft | 279 kts | 152° |
| 2026-04-24 21:12 | 42.21604 | 10.61232 | 21129 ft | 280 kts | 152° |
| 2026-04-24 21:12 | 42.19838 | 10.62298 | 21129 ft | 280 kts | 153° |
| 2026-04-24 21:12 | 42.18044 | 10.63344 | 21130 ft | 280 kts | 153° |
| 2026-04-24 21:13 | 42.16249 | 10.64382 | 21131 ft | 280 kts | 153° |
| 2026-04-24 21:13 | 42.14453 | 10.65422 | 21131 ft | 280 kts | 153° |
| 2026-04-24 21:13 | 42.12653 | 10.66461 | 21123 ft | 281 kts | 153° |
| 2026-04-24 21:13 | 42.10879 | 10.67485 | 21132 ft | 281 kts | 153° |
| 2026-04-24 21:14 | 42.09079 | 10.68525 | 21134 ft | 281 kts | 153° |
| 2026-04-24 21:14 | 42.07282 | 10.69560 | 21128 ft | 281 kts | 153° |
| 2026-04-24 21:14 | 42.05478 | 10.70599 | 21140 ft | 281 kts | 153° |
| 2026-04-24 21:14 | 42.03701 | 10.71624 | 21135 ft | 281 kts | 153° |
| 2026-04-24 21:15 | 42.01900 | 10.72659 | 21136 ft | 281 kts | 153° |
| 2026-04-24 21:15 | 42.00104 | 10.73694 | 21129 ft | 281 kts | 153° |
| 2026-04-24 21:15 | 41.98296 | 10.74735 | 21122 ft | 281 kts | 153° |
| 2026-04-24 21:15 | 41.96517 | 10.75754 | 21130 ft | 281 kts | 153° |
| 2026-04-24 21:16 | 41.94716 | 10.76787 | 21131 ft | 281 kts | 153° |
| 2026-04-24 21:16 | 41.92916 | 10.77822 | 21137 ft | 281 kts | 153° |
| 2026-04-24 21:16 | 41.91106 | 10.78862 | 21128 ft | 281 kts | 153° |
| 2026-04-24 21:16 | 41.89325 | 10.79879 | 21127 ft | 281 kts | 153° |
| 2026-04-24 21:17 | 41.87523 | 10.80911 | 21134 ft | 281 kts | 153° |
| 2026-04-24 21:17 | 41.85725 | 10.81942 | 21128 ft | 281 kts | 154° |
| 2026-04-24 21:17 | 41.83917 | 10.82975 | 21140 ft | 281 kts | 153° |
| 2026-04-24 21:17 | 41.82116 | 10.84006 | 21131 ft | 281 kts | 153° |
| 2026-04-24 21:18 | 41.80315 | 10.85035 | 21128 ft | 282 kts | 153° |
| 2026-04-24 21:18 | 41.78511 | 10.86065 | 21131 ft | 282 kts | 154° |
| 2026-04-24 21:18 | 41.76725 | 10.87082 | 21141 ft | 282 kts | 154° |
| 2026-04-24 21:18 | 41.74923 | 10.88110 | 21137 ft | 282 kts | 153° |
| 2026-04-24 21:19 | 41.73117 | 10.89139 | 21138 ft | 282 kts | 154° |
| 2026-04-24 21:19 | 41.71307 | 10.90170 | 21139 ft | 282 kts | 154° |
| 2026-04-24 21:19 | 41.69493 | 10.91205 | 21132 ft | 282 kts | 154° |
| 2026-04-24 21:19 | 41.67685 | 10.92233 | 21137 ft | 282 kts | 154° |
| 2026-04-24 21:20 | 41.64085 | 10.94278 | 21132 ft | 282 kts | 154° |
| 2026-04-24 21:20 | 41.62267 | 10.95310 | 21131 ft | 283 kts | 154° |
| 2026-04-24 21:20 | 41.60459 | 10.96338 | 21129 ft | 283 kts | 154° |
| 2026-04-24 21:21 | 41.58644 | 10.97365 | 21137 ft | 283 kts | 154° |
| 2026-04-24 21:21 | 41.56828 | 10.98395 | 21134 ft | 283 kts | 154° |
| 2026-04-24 21:21 | 41.55039 | 10.99409 | 21141 ft | 283 kts | 154° |
| 2026-04-24 21:21 | 41.53220 | 11.00439 | 21133 ft | 283 kts | 154° |
| 2026-04-24 21:22 | 41.51397 | 11.01471 | 21133 ft | 283 kts | 154° |
| 2026-04-24 21:22 | 41.49585 | 11.02496 | 21133 ft | 283 kts | 154° |
| 2026-04-24 21:22 | 41.47792 | 11.03509 | 21135 ft | 283 kts | 154° |
| 2026-04-24 21:22 | 41.45975 | 11.04536 | 21140 ft | 283 kts | 154° |
| 2026-04-24 21:23 | 41.44159 | 11.05561 | 21134 ft | 283 kts | 154° |
| 2026-04-24 21:23 | 41.42349 | 11.06581 | 21141 ft | 283 kts | 154° |
| 2026-04-24 21:23 | 41.40535 | 11.07604 | 21133 ft | 283 kts | 154° |
| 2026-04-24 21:23 | 41.38718 | 11.08624 | 21131 ft | 283 kts | 154° |
| 2026-04-24 21:24 | 41.36904 | 11.09645 | 21135 ft | 283 kts | 154° |
| 2026-04-24 21:24 | 41.35087 | 11.10668 | 21134 ft | 283 kts | 154° |
| 2026-04-24 21:24 | 41.33268 | 11.11691 | 21139 ft | 283 kts | 154° |
| 2026-04-24 21:24 | 41.31475 | 11.12700 | 21140 ft | 283 kts | 154° |
| 2026-04-24 21:25 | 41.29653 | 11.13723 | 21134 ft | 283 kts | 154° |
| 2026-04-24 21:25 | 41.27839 | 11.14743 | 21139 ft | 283 kts | 154° |
| 2026-04-24 21:25 | 41.26023 | 11.15760 | 21138 ft | 283 kts | 154° |
| 2026-04-24 21:25 | 41.24207 | 11.16779 | 21133 ft | 283 kts | 154° |
| 2026-04-24 21:26 | 41.22417 | 11.17781 | 21129 ft | 283 kts | 154° |
| 2026-04-24 21:26 | 41.20601 | 11.18797 | 21136 ft | 283 kts | 154° |
| 2026-04-24 21:26 | 41.18783 | 11.19817 | 21137 ft | 283 kts | 154° |
| 2026-04-24 21:26 | 41.16967 | 11.20830 | 21134 ft | 283 kts | 154° |
| 2026-04-24 21:27 | 41.15156 | 11.21843 | 21136 ft | 283 kts | 154° |
| 2026-04-24 21:27 | 41.13341 | 11.22856 | 21137 ft | 283 kts | 154° |
| 2026-04-24 21:27 | 41.11551 | 11.23856 | 21133 ft | 283 kts | 154° |
| 2026-04-24 21:27 | 41.09735 | 11.24870 | 21132 ft | 283 kts | 154° |
| 2026-04-24 21:28 | 41.07917 | 11.25883 | 21136 ft | 283 kts | 154° |
| 2026-04-24 21:28 | 41.06100 | 11.26897 | 21138 ft | 283 kts | 154° |
| 2026-04-24 21:28 | 41.04279 | 11.27910 | 21138 ft | 283 kts | 154° |
| 2026-04-24 21:28 | 41.02478 | 11.28913 | 21140 ft | 283 kts | 154° |
| 2026-04-24 21:29 | 41.00661 | 11.29924 | 21140 ft | 283 kts | 154° |
| 2026-04-24 21:29 | 40.98839 | 11.30935 | 21137 ft | 283 kts | 154° |
| 2026-04-24 21:29 | 40.97019 | 11.31947 | 21136 ft | 283 kts | 154° |
| 2026-04-24 21:29 | 40.95198 | 11.32958 | 21136 ft | 283 kts | 154° |
| 2026-04-24 21:30 | 40.93380 | 11.33968 | 21133 ft | 283 kts | 154° |
| 2026-04-24 21:30 | 40.91566 | 11.34975 | 21133 ft | 283 kts | 154° |
| 2026-04-24 21:30 | 40.89744 | 11.35982 | 21139 ft | 283 kts | 154° |
| 2026-04-24 21:30 | 40.87944 | 11.36980 | 21139 ft | 283 kts | 154° |
| 2026-04-24 21:31 | 40.86124 | 11.37987 | 21134 ft | 283 kts | 154° |
| 2026-04-24 21:31 | 40.84303 | 11.38995 | 21136 ft | 283 kts | 154° |
| 2026-04-24 21:31 | 40.82484 | 11.40003 | 21135 ft | 283 kts | 154° |
| 2026-04-24 21:31 | 40.80663 | 11.41007 | 21135 ft | 283 kts | 154° |
| 2026-04-24 21:32 | 40.78857 | 11.42006 | 21139 ft | 283 kts | 154° |
| 2026-04-24 21:32 | 40.77040 | 11.43007 | 21141 ft | 283 kts | 154° |
| 2026-04-24 21:32 | 40.75205 | 11.44024 | 21031 ft | 287 kts | 154° |
| 2026-04-24 21:32 | 40.73347 | 11.45049 | 20978 ft | 288 kts | 154° |
| 2026-04-24 21:33 | 40.71527 | 11.46053 | 20983 ft | 286 kts | 154° |
| 2026-04-24 21:33 | 40.70285 | 11.46737 | 20983 ft | 286 kts | 154° |
| 2026-04-24 21:33 | 40.67852 | 11.48077 | 20984 ft | 285 kts | 154° |
| 2026-04-24 21:33 | 40.66024 | 11.49082 | 20984 ft | 284 kts | 154° |
| 2026-04-24 21:34 | 40.64190 | 11.50090 | 20985 ft | 284 kts | 154° |
| 2026-04-24 21:34 | 40.62387 | 11.51080 | 20981 ft | 284 kts | 154° |
| 2026-04-24 21:34 | 40.60562 | 11.52082 | 20983 ft | 283 kts | 154° |
| 2026-04-24 21:34 | 40.58740 | 11.53082 | 20985 ft | 283 kts | 154° |
| 2026-04-24 21:35 | 40.56918 | 11.54080 | 20981 ft | 283 kts | 154° |
| 2026-04-24 21:35 | 40.55098 | 11.55077 | 20984 ft | 283 kts | 154° |
| 2026-04-24 21:35 | 40.53279 | 11.56074 | 20984 ft | 283 kts | 154° |
| 2026-04-24 21:35 | 40.51455 | 11.57068 | 20850 ft | 287 kts | 154° |
| 2026-04-24 21:36 | 40.49615 | 11.58078 | 20474 ft | 284 kts | 154° |
| 2026-04-24 21:36 | 40.47823 | 11.59059 | 20110 ft | 281 kts | 154° |
| 2026-04-24 21:36 | 40.46028 | 11.60040 | 19748 ft | 278 kts | 154° |
| 2026-04-24 21:36 | 40.44237 | 11.61015 | 19379 ft | 276 kts | 155° |
| 2026-04-24 21:37 | 40.42484 | 11.61967 | 19029 ft | 274 kts | 154° |
| 2026-04-24 21:37 | 40.40721 | 11.62929 | 18735 ft | 271 kts | 154° |
| 2026-04-24 21:37 | 40.39012 | 11.63862 | 18505 ft | 266 kts | 154° |
| 2026-04-24 21:37 | 40.37309 | 11.64793 | 18249 ft | 262 kts | 154° |
| 2026-04-24 21:38 | 40.35640 | 11.65703 | 17979 ft | 259 kts | 154° |
| 2026-04-24 21:38 | 40.33979 | 11.66607 | 17710 ft | 256 kts | 155° |
| 2026-04-24 21:38 | 40.32338 | 11.67500 | 17445 ft | 254 kts | 154° |
| 2026-04-24 21:38 | 40.30733 | 11.68372 | 17192 ft | 252 kts | 155° |
| 2026-04-24 21:39 | 40.29115 | 11.69253 | 16926 ft | 251 kts | 155° |
| 2026-04-24 21:39 | 40.27501 | 11.70129 | 16672 ft | 250 kts | 155° |
| 2026-04-24 21:39 | 40.25890 | 11.71004 | 16417 ft | 249 kts | 155° |
| 2026-04-24 21:39 | 40.24313 | 11.71859 | 16165 ft | 248 kts | 155° |
| 2026-04-24 21:40 | 40.22717 | 11.72726 | 15916 ft | 247 kts | 155° |
| 2026-04-24 21:40 | 40.21125 | 11.73589 | 15667 ft | 247 kts | 155° |
| 2026-04-24 21:40 | 40.19534 | 11.74447 | 15422 ft | 247 kts | 156° |
| 2026-04-24 21:40 | 40.17946 | 11.75308 | 15177 ft | 247 kts | 156° |
| 2026-04-24 21:41 | 40.16377 | 11.76157 | 14936 ft | 247 kts | 156° |
| 2026-04-24 21:41 | 40.14793 | 11.77014 | 14696 ft | 246 kts | 156° |
| 2026-04-24 21:41 | 40.13207 | 11.77872 | 14455 ft | 246 kts | 156° |
| 2026-04-24 21:41 | 40.11620 | 11.78730 | 14212 ft | 246 kts | 156° |
| 2026-04-24 21:42 | 40.10035 | 11.79586 | 13982 ft | 246 kts | 156° |
| 2026-04-24 21:42 | 40.08448 | 11.80441 | 13721 ft | 246 kts | 156° |
| 2026-04-24 21:42 | 40.06885 | 11.81285 | 13462 ft | 246 kts | 156° |
| 2026-04-24 21:42 | 40.05298 | 11.82141 | 13200 ft | 246 kts | 156° |
| 2026-04-24 21:43 | 40.03717 | 11.82994 | 12940 ft | 245 kts | 156° |
| 2026-04-24 21:43 | 40.02134 | 11.83848 | 12683 ft | 245 kts | 156° |
| 2026-04-24 21:43 | 40.00558 | 11.84696 | 12420 ft | 245 kts | 156° |
| 2026-04-24 21:43 | 39.98983 | 11.85544 | 12175 ft | 244 kts | 156° |
| 2026-04-24 21:44 | 39.97411 | 11.86389 | 11922 ft | 244 kts | 156° |
| 2026-04-24 21:44 | 39.95841 | 11.87232 | 11672 ft | 243 kts | 156° |
| 2026-04-24 21:44 | 39.94275 | 11.88073 | 11424 ft | 243 kts | 156° |
| 2026-04-24 21:44 | 39.92731 | 11.88902 | 11181 ft | 242 kts | 156° |
| 2026-04-24 21:45 | 39.91177 | 11.89736 | 10938 ft | 242 kts | 156° |
| 2026-04-24 21:45 | 39.89597 | 11.90583 | 10694 ft | 252 kts | 156° |
| 2026-04-24 21:45 | 39.87910 | 11.91488 | 10460 ft | 272 kts | 156° |
| 2026-04-24 21:45 | 39.86116 | 11.92450 | 10293 ft | 284 kts | 156° |
| 2026-04-24 21:46 | 39.84271 | 11.93438 | 10216 ft | 288 kts | 156° |
| 2026-04-24 21:46 | 39.82406 | 11.94436 | 10182 ft | 290 kts | 156° |
| 2026-04-24 21:46 | 39.80535 | 11.95438 | 10166 ft | 291 kts | 156° |
| 2026-04-24 21:46 | 39.78661 | 11.96441 | 10157 ft | 291 kts | 156° |
| 2026-04-24 21:47 | 39.76806 | 11.97433 | 10146 ft | 291 kts | 156° |
| 2026-04-24 21:47 | 39.75556 | 11.98099 | 10141 ft | 291 kts | 156° |
| 2026-04-24 21:47 | 39.73051 | 11.99438 | 10138 ft | 291 kts | 156° |
| 2026-04-24 21:47 | 39.71182 | 12.00435 | 10140 ft | 290 kts | 156° |
| 2026-04-24 21:48 | 39.69329 | 12.01422 | 10142 ft | 290 kts | 156° |
| 2026-04-24 21:48 | 39.67453 | 12.02422 | 10139 ft | 290 kts | 156° |
| 2026-04-24 21:48 | 39.65576 | 12.03421 | 10136 ft | 290 kts | 156° |
| 2026-04-24 21:48 | 39.63722 | 12.04409 | 10139 ft | 290 kts | 156° |
| 2026-04-24 21:49 | 39.61847 | 12.05407 | 10140 ft | 290 kts | 156° |
| 2026-04-24 21:49 | 39.60605 | 12.06069 | 10136 ft | 290 kts | 156° |
| 2026-04-24 21:49 | 39.58730 | 12.07064 | 10137 ft | 290 kts | 156° |
| 2026-04-24 21:49 | 39.56856 | 12.08059 | 10140 ft | 290 kts | 156° |
| 2026-04-24 21:50 | 39.55004 | 12.09041 | 10139 ft | 290 kts | 156° |
| 2026-04-24 21:50 | 39.53122 | 12.10039 | 10138 ft | 290 kts | 156° |
| 2026-04-24 21:50 | 39.51248 | 12.11033 | 10140 ft | 290 kts | 156° |
| 2026-04-24 21:50 | 39.49404 | 12.12010 | 10140 ft | 290 kts | 156° |
| 2026-04-24 21:51 | 39.47529 | 12.13003 | 10140 ft | 290 kts | 156° |
| 2026-04-24 21:51 | 39.45656 | 12.13995 | 10141 ft | 290 kts | 156° |
| 2026-04-24 21:51 | 39.43784 | 12.14986 | 10141 ft | 290 kts | 156° |
| 2026-04-24 21:51 | 39.41914 | 12.15975 | 10140 ft | 290 kts | 156° |
| 2026-04-24 21:52 | 39.40060 | 12.16955 | 10141 ft | 290 kts | 156° |
| 2026-04-24 21:52 | 39.38185 | 12.17946 | 10141 ft | 290 kts | 156° |
| 2026-04-24 21:52 | 39.36306 | 12.18936 | 10141 ft | 290 kts | 156° |
| 2026-04-24 21:52 | 39.34459 | 12.19909 | 10141 ft | 290 kts | 156° |
| 2026-04-24 21:53 | 39.32588 | 12.20895 | 10142 ft | 290 kts | 156° |
| 2026-04-24 21:53 | 39.30714 | 12.21882 | 10139 ft | 290 kts | 156° |
| 2026-04-24 21:53 | 39.28833 | 12.22873 | 10023 ft | 294 kts | 156° |
| 2026-04-24 21:53 | 39.26923 | 12.23877 | 9753 ft | 290 kts | 156° |
| 2026-04-24 21:54 | 39.25097 | 12.24838 | 9466 ft | 277 kts | 156° |
| 2026-04-24 21:54 | 39.23346 | 12.25758 | 9168 ft | 267 kts | 156° |
| 2026-04-24 21:54 | 39.21669 | 12.26640 | 8892 ft | 260 kts | 156° |
| 2026-04-24 21:54 | 39.20008 | 12.27511 | 8604 ft | 255 kts | 156° |
| 2026-04-24 21:55 | 39.18382 | 12.28364 | 8340 ft | 250 kts | 156° |
| 2026-04-24 21:55 | 39.16795 | 12.29196 | 8229 ft | 240 kts | 156° |
| 2026-04-24 21:55 | 39.15278 | 12.29990 | 8187 ft | 230 kts | 156° |
| 2026-04-24 21:55 | 39.13840 | 12.30744 | 8160 ft | 221 kts | 156° |
| 2026-04-24 21:56 | 39.12436 | 12.31480 | 8149 ft | 213 kts | 156° |
| 2026-04-24 21:56 | 39.11078 | 12.32190 | 8147 ft | 207 kts | 156° |
| 2026-04-24 21:56 | 39.09776 | 12.32873 | 8141 ft | 202 kts | 156° |
| 2026-04-24 21:56 | 39.08486 | 12.33549 | 8141 ft | 198 kts | 156° |
| 2026-04-24 21:57 | 39.07215 | 12.34213 | 8143 ft | 195 kts | 156° |
| 2026-04-24 21:57 | 39.05964 | 12.34868 | 8141 ft | 192 kts | 156° |
| 2026-04-24 21:57 | 39.04723 | 12.35516 | 8146 ft | 195 kts | 156° |
| 2026-04-24 21:57 | 39.03465 | 12.36172 | 8143 ft | 200 kts | 156° |
| 2026-04-24 21:58 | 39.02160 | 12.36856 | 8146 ft | 204 kts | 156° |
| 2026-04-24 21:58 | 39.00832 | 12.37547 | 8148 ft | 207 kts | 156° |
| 2026-04-24 21:58 | 38.99484 | 12.38251 | 8141 ft | 210 kts | 156° |
| 2026-04-24 21:58 | 38.98139 | 12.38952 | 8144 ft | 211 kts | 156° |
| 2026-04-24 21:59 | 38.96771 | 12.39665 | 8141 ft | 213 kts | 156° |
| 2026-04-24 21:59 | 38.95393 | 12.40383 | 8141 ft | 213 kts | 156° |
| 2026-04-24 21:59 | 38.94007 | 12.41106 | 8140 ft | 214 kts | 156° |
| 2026-04-24 21:59 | 38.92639 | 12.41818 | 8145 ft | 215 kts | 156° |
| 2026-04-24 22:00 | 38.91245 | 12.42544 | 8144 ft | 215 kts | 156° |
| 2026-04-24 22:00 | 38.89874 | 12.43258 | 8139 ft | 215 kts | 156° |
| 2026-04-24 22:00 | 38.88482 | 12.43983 | 8139 ft | 216 kts | 156° |
| 2026-04-24 22:00 | 38.87097 | 12.44711 | 8139 ft | 216 kts | 156° |
| 2026-04-24 22:01 | 38.85817 | 12.45645 | 8140 ft | 210 kts | 130° |
| 2026-04-24 22:01 | 38.85127 | 12.47236 | 8142 ft | 205 kts | 112° |
| 2026-04-24 22:01 | 38.84542 | 12.48917 | 8140 ft | 206 kts | 113° |
| 2026-04-24 22:01 | 38.83915 | 12.50582 | 8142 ft | 208 kts | 116° |
| 2026-04-24 22:02 | 38.83203 | 12.52205 | 8142 ft | 209 kts | 120° |
| 2026-04-24 22:02 | 38.82419 | 12.53787 | 8143 ft | 210 kts | 122° |
| 2026-04-24 22:02 | 38.81605 | 12.55355 | 8142 ft | 211 kts | 122° |
| 2026-04-24 22:02 | 38.80794 | 12.56926 | 8142 ft | 212 kts | 121° |
| 2026-04-24 22:03 | 38.79989 | 12.58508 | 8144 ft | 212 kts | 121° |
| 2026-04-24 22:03 | 38.79183 | 12.60098 | 8143 ft | 212 kts | 121° |
| 2026-04-24 22:03 | 38.78388 | 12.61663 | 8142 ft | 212 kts | 121° |
| 2026-04-24 22:03 | 38.77580 | 12.63258 | 8145 ft | 213 kts | 121° |
| 2026-04-24 22:04 | 38.76769 | 12.64849 | 8138 ft | 213 kts | 121° |
| 2026-04-24 22:04 | 38.75960 | 12.66443 | 8144 ft | 213 kts | 121° |
| 2026-04-24 22:04 | 38.75157 | 12.68019 | 8136 ft | 213 kts | 121° |
| 2026-04-24 22:04 | 38.74336 | 12.69598 | 8136 ft | 211 kts | 126° |
| 2026-04-24 22:05 | 38.73139 | 12.70682 | 8018 ft | 216 kts | 157° |
| 2026-04-24 22:05 | 38.71706 | 12.71391 | 7807 ft | 225 kts | 157° |
| 2026-04-24 22:05 | 38.70173 | 12.71734 | 7561 ft | 224 kts | 180° |
| 2026-04-24 22:05 | 38.68641 | 12.71619 | 7323 ft | 223 kts | 182° |
| 2026-04-24 22:06 | 38.67090 | 12.71486 | 7079 ft | 223 kts | 182° |
| 2026-04-24 22:06 | 38.65535 | 12.71332 | 6826 ft | 223 kts | 183° |
| 2026-04-24 22:06 | 38.64013 | 12.71166 | 6593 ft | 222 kts | 183° |
| 2026-04-24 22:06 | 38.62471 | 12.70989 | 6337 ft | 221 kts | 184° |
| 2026-04-24 22:07 | 38.60935 | 12.70809 | 6081 ft | 221 kts | 184° |
| 2026-04-24 22:07 | 38.59398 | 12.70625 | 5821 ft | 220 kts | 184° |
| 2026-04-24 22:07 | 38.57872 | 12.70439 | 5572 ft | 220 kts | 184° |
| 2026-04-24 22:07 | 38.56369 | 12.70257 | 5325 ft | 220 kts | 184° |
| 2026-04-24 22:08 | 38.54854 | 12.70074 | 5139 ft | 216 kts | 184° |
| 2026-04-24 22:08 | 38.53380 | 12.69894 | 5066 ft | 206 kts | 183° |
| 2026-04-24 22:08 | 38.51979 | 12.69720 | 5028 ft | 198 kts | 184° |
| 2026-04-24 22:08 | 38.50630 | 12.69547 | 5007 ft | 196 kts | 184° |
| 2026-04-24 22:09 | 38.49281 | 12.69371 | 5004 ft | 193 kts | 184° |
| 2026-04-24 22:09 | 38.47950 | 12.69198 | 5007 ft | 191 kts | 184° |
| 2026-04-24 22:09 | 38.46636 | 12.69056 | 5002 ft | 186 kts | 176° |
| 2026-04-24 22:09 | 38.45402 | 12.69397 | 5001 ft | 180 kts | 159° |
| 2026-04-24 22:10 | 38.44221 | 12.69937 | 4901 ft | 185 kts | 157° |
| 2026-04-24 22:10 | 38.42992 | 12.70540 | 4757 ft | 191 kts | 156° |
| 2026-04-24 22:10 | 38.41753 | 12.71165 | 4653 ft | 190 kts | 156° |
| 2026-04-24 22:10 | 38.40542 | 12.71782 | 4545 ft | 189 kts | 156° |
| 2026-04-24 22:11 | 38.39334 | 12.72408 | 4392 ft | 189 kts | 155° |
| 2026-04-24 22:11 | 38.38084 | 12.73056 | 4051 ft | 198 kts | 155° |
| 2026-04-24 22:11 | 38.36803 | 12.73719 | 3736 ft | 193 kts | 155° |
| 2026-04-24 22:11 | 38.35580 | 12.74346 | 3404 ft | 186 kts | 155° |
| 2026-04-24 22:12 | 38.34411 | 12.74938 | 3084 ft | 175 kts | 155° |
| 2026-04-24 22:12 | 38.33317 | 12.75490 | 2751 ft | 167 kts | 155° |
| 2026-04-24 22:12 | 38.32283 | 12.76141 | 2503 ft | 163 kts | 148° |
| 2026-04-24 22:12 | 38.31314 | 12.76850 | 2389 ft | 156 kts | 147° |
| 2026-04-24 22:13 | 38.30406 | 12.77537 | 2335 ft | 147 kts | 146° |
| 2026-04-24 22:13 | 38.29570 | 12.78179 | 2298 ft | 137 kts | 146° |
| 2026-04-24 22:13 | 38.28778 | 12.78789 | 2296 ft | 127 kts | 145° |
| 2026-04-24 22:13 | 38.28053 | 12.79337 | 2291 ft | 118 kts | 146° |
| 2026-04-24 22:14 | 38.27326 | 12.79797 | 2292 ft | 119 kts | 151° |
| 2026-04-24 22:14 | 38.26526 | 12.80247 | 2309 ft | 131 kts | 153° |
| 2026-04-24 22:14 | 38.25658 | 12.80721 | 2310 ft | 141 kts | 153° |
| 2026-04-24 22:14 | 38.24733 | 12.81222 | 2316 ft | 147 kts | 153° |
| 2026-04-24 22:15 | 38.23772 | 12.81736 | 2307 ft | 152 kts | 153° |
| 2026-04-24 22:15 | 38.22783 | 12.82261 | 2294 ft | 155 kts | 154° |
| 2026-04-24 22:15 | 38.21789 | 12.82792 | 2305 ft | 157 kts | 154° |
| 2026-04-24 22:15 | 38.20775 | 12.83338 | 2299 ft | 159 kts | 153° |
| 2026-04-24 22:16 | 38.19749 | 12.83887 | 2293 ft | 161 kts | 154° |
| 2026-04-24 22:16 | 38.18706 | 12.84440 | 2284 ft | 161 kts | 154° |
| 2026-04-24 22:16 | 38.17686 | 12.84989 | 2284 ft | 161 kts | 154° |
| 2026-04-24 22:16 | 38.16705 | 12.85525 | 2291 ft | 160 kts | 153° |
| 2026-04-24 22:17 | 38.15678 | 12.86089 | 2301 ft | 161 kts | 154° |
| 2026-04-24 22:17 | 38.14646 | 12.86652 | 2294 ft | 162 kts | 153° |
| 2026-04-24 22:17 | 38.13624 | 12.87208 | 2290 ft | 161 kts | 154° |
| 2026-04-24 22:17 | 38.12590 | 12.87768 | 2288 ft | 161 kts | 154° |
| 2026-04-24 22:18 | 38.11561 | 12.88331 | 2296 ft | 160 kts | 154° |
| 2026-04-24 22:18 | 38.10746 | 12.89199 | 2289 ft | 153 kts | 111° |
| 2026-04-24 22:18 | 38.10771 | 12.90495 | 2294 ft | 148 kts | 73° |
| 2026-04-24 22:18 | 38.11140 | 12.91688 | 2292 ft | 146 kts | 58° |
| 2026-04-24 22:19 | 38.11708 | 12.92803 | 2159 ft | 156 kts | 56° |
| 2026-04-24 22:19 | 38.12341 | 12.93964 | 1994 ft | 163 kts | 54° |
| 2026-04-24 22:19 | 38.12993 | 12.95148 | 1939 ft | 161 kts | 58° |
| 2026-04-24 22:19 | 38.13492 | 12.96387 | 1895 ft | 160 kts | 64° |
| 2026-04-24 22:20 | 38.13928 | 12.97722 | 1676 ft | 163 kts | 70° |
| 2026-04-24 22:20 | 38.14241 | 12.98962 | 1467 ft | 131 kts | 72° |
| 2026-04-24 22:20 | 38.14514 | 12.99985 | 1359 ft | 116 kts | 71° |
| 2026-04-24 22:20 | 38.14820 | 13.00932 | 1301 ft | 116 kts | 66° |
| 2026-04-24 22:21 | 38.15146 | 13.01854 | 1285 ft | 114 kts | 66° |
| 2026-04-24 22:21 | 38.15468 | 13.02771 | 1236 ft | 112 kts | 66° |
| 2026-04-24 22:21 | 38.15797 | 13.03706 | 1058 ft | 121 kts | 65° |
| 2026-04-24 22:21 | 38.16142 | 13.04692 | 889 ft | 125 kts | 67° |
| 2026-04-24 22:22 | 38.16484 | 13.05719 | 730 ft | 126 kts | 68° |
| 2026-04-24 22:22 | 38.16822 | 13.06763 | 492 ft | 130 kts | 68° |
| 2026-04-24 22:22 | 38.17140 | 13.07766 | 302 ft | 114 kts | 68° |
| 2026-04-24 22:22 | 38.17431 | 13.08634 | 158 ft | 100 kts | 66° |
| 2026-04-24 22:23 | 38.17681 | 13.09373 | 66 ft | 62 kts | 67° |
| 2026-04-24 22:23 | 38.17788 | 13.09689 | 61 ft | 18 kts | 67° |
| 2026-04-24 22:23 | 38.17824 | 13.09794 | 64 ft | 22 kts | 65° |
| 2026-04-24 22:23 | 38.17894 | 13.10005 | 62 ft | 17 kts | 69° |
| 2026-04-24 22:24 | 38.17930 | 13.10131 | 62 ft | 20 kts | 69° |
| 2026-04-24 22:24 | 38.17977 | 13.10246 | 64 ft | 7 kts | 36° |
| 2026-04-24 22:24 | 38.18020 | 13.10213 | 64 ft | 12 kts | 285° |
| 2026-04-24 22:24 | 38.18028 | 13.10151 | 64 ft | 0 kts | 276° |
| 2026-04-24 22:25 | 38.18028 | 13.10149 | 64 ft | 0 kts | 276° |
| 2026-04-24 22:25 | 38.18032 | 13.10074 | 56 ft | 14 kts | 273° |
| 2026-04-24 22:25 | 38.18043 | 13.09943 | 62 ft | 12 kts | 283° |
| 2026-04-24 22:26 | 38.18082 | 13.09871 | 60 ft | 9 kts | 333° |
| 2026-04-24 22:26 | 38.18133 | 13.09897 | 55 ft | 7 kts | 58° |
| 2026-04-24 22:26 | 38.18151 | 13.09946 | 59 ft | 5 kts | 65° |
| 2026-04-24 22:26 | 38.18171 | 13.09982 | 62 ft | 6 kts | 37° |
| 2026-04-24 22:27 | 38.18223 | 13.09977 | 54 ft | 11 kts | 339° |
| 2026-04-24 22:27 | 38.18266 | 13.09954 | 59 ft | 6 kts | 337° |
| 2026-04-24 22:27 | 38.18273 | 13.09951 | 61 ft | 0 kts | 337° |